ADDS METAR Data INFO
IDs: Format: Raw Decoded Include TAF

Data at: 0512 UTC 22 Jul 2017

KFTW 220453Z 14011KT 10SM CLR 31/21 A2994 RMK AO2 SLP128 T03060211
KFTW 220353Z 14011KT 10SM CLR 32/21 A2994 RMK AO2 SLP127 T03170211
KFTW 220253Z 13014KT 10SM CLR 33/22 A2992 RMK AO2 SLP121 T03280217 53013
KFTW 220153Z 14009KT 10SM CLR 34/19 A2989 RMK AO2 SLP110 T03390194
KFTW 220053Z 15012KT 10SM CLR 35/19 A2988 RMK AO2 SLP105 T03500194
KFTW 212353Z 14011KT 10SM CLR 37/18 A2988 RMK AO2 SLP108 T03720183 10378 20356 56016
KFTW 212253Z 13009KT 10SM FEW075 37/19 A2989 RMK AO2 SLP111 T03720194
KFTW 212153Z 20004KT 10SM FEW075 38/20 A2991 RMK AO2 SLP118 T03780200
KFTW 212053Z 20010KT 10SM CLR 38/22 A2993 RMK AO2 SLP124 T03780217 58022
KFTW 211953Z 17012G16KT 140V220 10SM SCT070 37/21 A2995 RMK AO2 SLP132 T03670211
KFTW 211853Z 20006KT 10SM FEW060 37/22 A2998 RMK AO2 SLP140 T03670217
KFTW 211753Z 19007KT 10SM CLR 36/23 A3000 RMK AO2 SLP146 T03560228 10356 20267 58009
KFTW 211653Z 20009KT 10SM CLR 34/23 A3001 RMK AO2 SLP152 T03440228
KFTW 211553Z 18005KT 10SM CLR 33/23 A3002 RMK AO2 SLP154 T03280233
KFTW 211453Z 19007KT 10SM CLR 32/23 A3002 RMK AO2 SLP156 T03170228 51006
KFTW 211353Z 18006KT 10SM CLR 31/23 A3002 RMK AO2 SLP155 T03060228
KFTW 211253Z 17005KT 10SM CLR 29/23 A3002 RMK AO2 SLP153 T02890233
KFTW 211153Z 18005KT 10SM CLR 27/23 A3001 RMK AO2 SLP149 T02720228 10300 20267 53005
KFTW 211053Z 17006KT 10SM CLR 27/23 A3000 RMK AO2 SLP146 T02720228
KFTW 210953Z 17006KT 10SM CLR 28/23 A2998 RMK AO2 SLP141 T02780228
KFTW 210853Z 16008KT 10SM CLR 28/22 A2999 RMK AO2 SLP143 T02830222 58007
KFTW 210753Z 16008KT 10SM CLR 29/22 A3000 RMK AO2 SLP147 T02890222
KFTW 210653Z 15008KT 10SM CLR 29/22 A3001 RMK AO2 SLP149 T02940222
KFTW 210553Z 14008KT 10SM CLR 30/22 A3001 RMK AO2 SLP151 T03000222 10367 20300 403780261 50007
KFTW 210453Z 14009KT 10SM CLR 31/22 A3002 RMK AO2 SLP153 T03060222
KFTW 210353Z 13011KT 10SM CLR 32/22 A3000 RMK AO2 SLP148 T03170222
KFTW 210253Z 12012KT 10SM CLR 33/22 A2999 RMK AO2 SLP144 T03280222 53011
KFTW 210153Z 12012KT 10SM CLR 34/21 A2997 RMK AO2 SLP137 T03390206
KFTW 210053Z 17008KT 10SM CLR 34/20 A2996 RMK AO2 SLP133 T03440200
KFTW 202353Z 16010KT 10SM CLR 37/19 A2996 RMK AO2 SLP132 T03670194 10378 20350 56017
KFTW 202253Z 18009KT 10SM CLR 37/19 A2997 RMK AO2 SLP137 T03720189
KFTW 202153Z 12008KT 10SM SCT070 38/20 A2999 RMK AO2 SLP144 T03780200
KFTW 202053Z 18008KT 10SM SCT065 37/21 A3001 RMK AO2 SLP149 T03720211 58027
KFTW 201953Z 20007KT 10SM FEW065 36/21 A3004 RMK AO2 SLP160 T03610211
KFTW 201853Z 00000KT 10SM CLR 36/21 A3006 RMK AO2 SLP169 T03610211
KFTW 201753Z 21009KT 10SM CLR 35/23 A3009 RMK AO2 SLP177 T03500228 10350 20267 58012